Paauilo, HI (96776)

11:32 PM HST on September 03, 2015 (GMT -1000)
Mauna Loa Phobos | | Change Station
CLOSE
Current Station
Personal Weather Station
Location: Kamuela, HI
Elevation: 8081 ft
Nearby Weather Stations
Active Advisory: Flash Flood Watch Active Notice: Record Report

Elev 8081 ft 19.60 °N, 155.49 °W | Updated 33 seconds ago

Clear
Clear
51.6 °F
Feels Like 51.6 °F
N
7.9
Wind Variable Wind from South

Today
High -- | Low -- °F
--% Chance of Precip.
Yesterday
High -- | Low -- °F
Precip. -- in
6:06 AM 6:35 PM
Waning Gibbous, 61% visible
Pressure 29.92 in
Visibility 10.0 miles
Clouds Clear
Dew Point 50 °F
Humidity 93%
Rainfall in
Snow Depth Not available.
UV 0 out of 12
Pollen Not available.
Air Quality Not available.
Flu Activity Not available.
METAR PHSF 040856Z AUTO 12004KT 10SM CLR 12/11 A3028 RMK AO2 SLP131 T01170108 50001 $
Pressure 29.92 in
Visibility 10.0 miles
Clouds Clear
Dew Point 50 °F
Humidity 93%
Rainfall in
Snow Depth Not available.
UV 0 out of 12
Pollen Not available.
Air Quality Not available.
Flu Activity Not available.
METAR PHSF 040856Z AUTO 12004KT 10SM CLR 12/11 A3028 RMK AO2 SLP131 T01170108 50001 $

10-Day Weather Forecast

×

Almanac

Astronomy

Sep. 03, 2015 Rise Set
Actual Time
Civil Twilight
Nautical Twilight
Astronomical Twilight
Moon
Length of Visible Light
Length of Day
Tomorrow will be .
, % of the Moon is Illuminated

Today's Extremes

State Highs State Lows

Community

WunderPhotos

Upload Photos

1,852,142 photos uploaded!

WunderBlogs® & News

Nearby

Air Quality

  Air Quality AQ Index Pollutant
Not available.

Snow Depth

Station Depth Elevation

Earthquake Activity

City Distance Mag. Time & Date
Minimum magnitude displayed is 2.5.

Coastal Water Temperatures

Place Temperature

Stations

Nearby Weather Stations

Station Location Temp. Windchill Dew Point Humidity Wind Precip. Elev Updated Type
                   
Flash Flood Watch
Statement as of 3:03 PM HST on September 03, 2015

... Flash Flood Watch remains in effect until 6 PM HST Friday...

The Flash Flood Watch continues for

* all Hawaiian islands.

* Until 6 PM HST Friday.

* A very moist air mass... together with an upper level trough just
west of the state... will likely produce locally heavy showers
and thunderstorms through Friday. Saturated soils from recent
and current rainfall across the state will increase the risk for
flash flooding.


Precautionary/preparedness actions...

A Flash Flood Watch means that conditions may develop that lead
to flash flooding. Flash flooding is very dangerous. Remember
that it does not have to be raining heavily where you are for
flash flooding to occur.

Monitor the latest forecasts and be prepared to take immediate
action if flash flood warnings are issued.



Foster